createdAt,value
2023-04-14T00:01:43.051Z,8.80
2023-04-14T00:04:09.952Z,8.90
2023-04-14T00:06:36.673Z,8.90
2023-04-14T00:09:03.491Z,8.80
2023-04-14T00:11:30.447Z,8.90
2023-04-14T00:13:57.435Z,8.90
2023-04-14T00:16:24.094Z,8.80
2023-04-14T00:18:50.748Z,8.80
2023-04-14T00:21:17.362Z,8.80
2023-04-14T00:23:43.964Z,8.80
2023-04-14T00:26:10.685Z,8.80
2023-04-14T00:28:37.320Z,8.80
2023-04-14T00:31:04.238Z,8.70
2023-04-14T00:33:30.854Z,8.70
2023-04-14T00:35:57.559Z,8.70
2023-04-14T00:38:25.288Z,8.70
2023-04-14T00:40:51.942Z,8.70
2023-04-14T00:43:21.927Z,8.70
2023-04-14T00:45:50.450Z,8.70
2023-04-14T00:48:18.925Z,8.70
2023-04-14T00:50:46.121Z,8.60
2023-04-14T00:53:13.281Z,8.60
2023-04-14T00:55:41.307Z,8.50
2023-04-14T00:58:08.738Z,8.50
2023-04-14T01:00:36.205Z,8.50
2023-04-14T01:03:03.332Z,8.50
2023-04-14T01:05:30.542Z,8.50
2023-04-14T01:07:57.653Z,8.50
2023-04-14T01:10:30.366Z,8.50
2023-04-14T01:13:12.202Z,8.50
2023-04-14T01:15:46.741Z,8.40
2023-04-14T01:18:21.925Z,8.40
2023-04-14T01:20:52.489Z,8.40
2023-04-14T01:23:26.689Z,8.40
2023-04-14T01:26:20.280Z,8.30
2023-04-14T01:28:56.149Z,8.30
2023-04-14T01:31:26.620Z,8.20
2023-04-14T01:34:31.099Z,8.20
2023-04-14T01:37:03.972Z,8.20
2023-04-14T01:39:38.759Z,8.20
2023-04-14T01:42:10.432Z,8.20
2023-04-14T01:44:40.261Z,8.20
2023-04-14T01:47:09.836Z,8.20
2023-04-14T01:49:39.500Z,8.10
2023-04-14T01:52:09.850Z,8.10
2023-04-14T01:54:39.546Z,8.10
2023-04-14T01:57:07.986Z,8.10
2023-04-14T01:59:36.848Z,8.00
2023-04-14T02:02:06.508Z,8.10
2023-04-14T02:04:35.468Z,8.00
2023-04-14T02:07:03.001Z,9.00
2023-04-14T02:09:31.754Z,8.00
2023-04-14T02:11:59.448Z,8.00
2023-04-14T02:14:27.514Z,8.00
2023-04-14T02:16:57.183Z,8.00
2023-04-14T02:19:25.237Z,7.90
2023-04-14T02:21:53.387Z,7.90
2023-04-14T02:24:21.312Z,7.90
2023-04-14T02:26:58.625Z,7.90
2023-04-14T02:29:26.930Z,7.90
2023-04-14T02:31:59.635Z,7.90
2023-04-14T02:34:30.444Z,7.90
2023-04-14T02:37:00.778Z,7.90
2023-04-14T02:39:33.491Z,7.80
2023-04-14T02:42:05.754Z,7.90
2023-04-14T02:44:43.156Z,7.90
2023-04-14T02:47:11.684Z,7.80
2023-04-14T02:49:41.518Z,7.80
2023-04-14T02:52:11.915Z,7.80
2023-04-14T02:54:41.378Z,7.80
2023-04-14T02:57:08.900Z,7.80
2023-04-14T02:59:37.664Z,7.80
2023-04-14T03:02:06.225Z,7.80
2023-04-14T03:04:35.247Z,7.80
2023-04-14T03:07:03.058Z,7.70
2023-04-14T03:09:31.947Z,7.80
2023-04-14T03:12:00.443Z,7.80
2023-04-14T03:14:27.968Z,6.80
2023-04-14T03:16:56.035Z,7.70
2023-04-14T03:19:25.125Z,7.70
2023-04-14T03:21:54.669Z,7.70
2023-04-14T03:24:27.367Z,7.60
2023-04-14T03:27:04.416Z,7.60
2023-04-14T03:29:36.225Z,7.70
2023-04-14T03:32:06.957Z,7.60
2023-04-14T03:34:35.660Z,7.60
2023-04-14T03:37:04.344Z,7.60
2023-04-14T03:39:34.438Z,7.60
2023-04-14T03:42:02.090Z,7.50
2023-04-14T03:44:32.813Z,7.60
2023-04-14T03:47:03.789Z,7.60
2023-04-14T03:49:33.332Z,7.50
2023-04-14T03:52:05.195Z,7.50
2023-04-14T03:54:33.662Z,7.50
2023-04-14T03:57:04.585Z,7.40
2023-04-14T03:59:32.252Z,7.40
2023-04-14T04:01:59.258Z,7.40
2023-04-14T04:04:26.133Z,7.40
2023-04-14T04:06:53.853Z,7.50
2023-04-14T04:09:24.483Z,7.40
2023-04-14T04:11:52.603Z,7.40
2023-04-14T04:14:21.563Z,7.50
2023-04-14T04:16:49.785Z,9.20
2023-04-14T04:19:21.521Z,7.40
2023-04-14T04:21:51.472Z,7.40
2023-04-14T04:24:22.023Z,7.50
2023-04-14T04:26:48.805Z,7.40
2023-04-14T04:29:16.389Z,7.30
2023-04-14T04:31:43.200Z,7.30
2023-04-14T04:34:10.931Z,7.30
2023-04-14T04:36:38.690Z,7.40
2023-04-14T04:39:05.434Z,7.70
2023-04-14T04:41:32.056Z,7.80
2023-04-14T04:43:59.297Z,7.70
2023-04-14T04:46:44.213Z,7.60
2023-04-14T04:49:10.821Z,7.50
2023-04-14T04:51:37.722Z,7.50
2023-04-14T04:54:05.931Z,7.50
2023-04-14T04:56:33.402Z,7.50
2023-04-14T04:59:00.385Z,7.60
2023-04-14T05:01:27.465Z,7.50
2023-04-14T05:03:54.623Z,7.50
2023-04-14T05:06:21.786Z,7.40
2023-04-14T05:08:50.846Z,7.50
2023-04-14T05:11:17.626Z,7.50
2023-04-14T05:13:44.215Z,7.50
2023-04-14T05:16:15.263Z,7.30
2023-04-14T05:18:42.373Z,7.30
2023-04-14T05:21:12.573Z,7.40
2023-04-14T05:23:42.126Z,7.40
2023-04-14T05:26:31.212Z,7.40
2023-04-14T05:28:56.115Z,7.50
2023-04-14T05:31:23.114Z,7.50
2023-04-14T05:33:49.833Z,7.50
2023-04-14T05:36:16.509Z,7.50
2023-04-14T05:38:43.297Z,7.60
2023-04-14T05:41:09.985Z,7.60
2023-04-14T05:43:37.419Z,7.70
2023-04-14T05:46:04.313Z,5.40
2023-04-14T05:48:33.112Z,7.90
2023-04-14T05:50:59.764Z,7.90
2023-04-14T05:53:27.392Z,8.10
2023-04-14T05:55:54.071Z,8.10
2023-04-14T05:58:20.744Z,8.20
2023-04-14T06:00:47.460Z,8.40
2023-04-14T06:03:16.236Z,8.40
2023-04-14T06:05:43.283Z,8.50
2023-04-14T06:08:10.414Z,8.50
2023-04-14T06:10:37.092Z,8.40
2023-04-14T06:13:03.716Z,8.50
2023-04-14T06:15:31.063Z,8.60
2023-04-14T06:17:57.772Z,8.60
2023-04-14T06:20:25.606Z,8.50
2023-04-14T06:22:52.363Z,8.50
2023-04-14T06:25:19.022Z,8.40
2023-04-14T06:27:45.717Z,8.40
2023-04-14T06:30:13.481Z,8.30
2023-04-14T06:32:40.206Z,8.20
2023-04-14T06:35:07.554Z,8.30
2023-04-14T06:37:34.200Z,8.40
2023-04-14T06:40:00.817Z,8.30
2023-04-14T06:42:27.459Z,8.30
2023-04-14T06:44:54.067Z,8.40
2023-04-14T06:47:22.686Z,8.50
2023-04-14T06:49:49.549Z,8.60
2023-04-14T06:52:16.272Z,8.70
2023-04-14T06:54:43.678Z,8.70
2023-04-14T06:57:10.512Z,8.80
2023-04-14T06:59:37.536Z,8.80
2023-04-14T07:02:04.443Z,8.90
2023-04-14T07:04:31.212Z,9.00
2023-04-14T07:07:01.689Z,9.10
2023-04-14T07:09:31.183Z,9.20
2023-04-14T07:11:57.928Z,9.30
2023-04-14T07:14:25.202Z,9.50
2023-04-14T07:16:52.880Z,9.50
2023-04-14T07:19:20.029Z,9.60
2023-04-14T07:21:47.060Z,9.60
2023-04-14T07:24:15.484Z,9.60
2023-04-14T07:26:43.558Z,9.60
2023-04-14T07:29:10.154Z,9.70
2023-04-14T07:31:38.099Z,9.80
2023-04-14T07:34:05.089Z,9.80
2023-04-14T07:36:32.609Z,9.90
2023-04-14T07:38:59.483Z,10.10
2023-04-14T07:41:27.250Z,10.10
2023-04-14T07:43:59.140Z,10.20
2023-04-14T07:46:26.374Z,10.10
2023-04-14T07:48:53.326Z,10.20
2023-04-14T07:51:20.620Z,10.30
2023-04-14T07:53:47.255Z,10.30
2023-04-14T07:56:16.030Z,10.40
2023-04-14T07:58:42.674Z,10.30
2023-04-14T08:01:09.328Z,10.30
2023-04-14T08:03:37.764Z,10.30
2023-04-14T08:06:06.825Z,10.40
2023-04-14T08:08:34.633Z,10.30
2023-04-14T08:11:01.487Z,10.40
2023-04-14T08:13:28.143Z,10.50
2023-04-14T08:15:54.809Z,10.50
2023-04-14T08:18:21.650Z,10.60
2023-04-14T08:20:48.630Z,10.70
2023-04-14T08:23:15.590Z,10.80
2023-04-14T08:25:42.482Z,10.80
2023-04-14T08:28:09.139Z,10.90
2023-04-14T08:30:35.798Z,11.10
2023-04-14T08:33:02.424Z,11.20
2023-04-14T08:35:39.096Z,11.20
2023-04-14T08:38:08.343Z,11.30
2023-04-14T08:40:40.115Z,11.50
2023-04-14T08:43:07.430Z,11.40
2023-04-14T08:45:34.688Z,11.40
2023-04-14T08:48:03.673Z,11.40
2023-04-14T08:50:37.896Z,11.40
2023-04-14T08:53:09.231Z,11.60
2023-04-14T08:55:41.624Z,11.60
2023-04-14T08:58:10.615Z,11.70
2023-04-14T09:00:39.742Z,11.60
2023-04-14T09:03:07.530Z,9.90
2023-04-14T09:05:34.413Z,11.60
2023-04-14T09:08:02.074Z,11.70
2023-04-14T09:10:30.226Z,11.80
2023-04-14T09:12:57.446Z,11.80
2023-04-14T09:15:27.284Z,11.90
2023-04-14T09:17:54.642Z,11.90
2023-04-14T09:20:35.032Z,11.90
2023-04-14T09:23:04.552Z,11.90
2023-04-14T09:25:32.089Z,11.90
2023-04-14T09:27:59.025Z,12.00
2023-04-14T09:30:25.822Z,12.30
2023-04-14T09:32:56.456Z,12.40
2023-04-14T09:35:24.229Z,11.00
2023-04-14T09:37:50.901Z,12.90
2023-04-14T09:40:31.564Z,13.00
2023-04-14T09:42:58.595Z,12.80
2023-04-14T09:45:44.920Z,12.90
2023-04-14T09:48:15.300Z,12.90
2023-04-14T09:51:08.068Z,12.60
2023-04-14T09:53:37.703Z,12.60
2023-04-14T09:56:14.696Z,12.50
2023-04-14T09:58:43.917Z,12.40
2023-04-14T10:01:14.927Z,12.30
2023-04-14T10:03:43.906Z,12.30
2023-04-14T10:06:19.882Z,12.40
2023-04-14T10:08:51.504Z,12.60
2023-04-14T10:11:19.404Z,12.70
2023-04-14T10:13:48.729Z,12.70
2023-04-14T10:16:15.858Z,12.80
2023-04-14T10:18:43.312Z,12.70
2023-04-14T10:21:11.384Z,12.60
2023-04-14T10:23:39.511Z,12.60
2023-04-14T10:26:10.305Z,12.50
2023-04-14T10:28:40.782Z,12.60
2023-04-14T10:31:13.699Z,12.70
2023-04-14T10:33:40.435Z,12.60
2023-04-14T10:36:07.154Z,12.70
2023-04-14T10:38:42.372Z,12.90
2023-04-14T10:41:10.693Z,12.80
2023-04-14T10:43:38.119Z,12.80
2023-04-14T10:46:06.403Z,12.80
2023-04-14T10:48:35.258Z,12.90
2023-04-14T10:51:04.512Z,13.10
2023-04-14T10:53:44.677Z,13.00
2023-04-14T10:56:11.344Z,13.00
2023-04-14T10:58:38.245Z,12.80
2023-04-14T11:01:32.071Z,12.80
2023-04-14T11:04:18.070Z,13.30
2023-04-14T11:06:47.839Z,13.30
2023-04-14T11:09:32.147Z,13.40
2023-04-14T11:12:04.586Z,13.20
2023-04-14T11:14:33.238Z,13.00
2023-04-14T11:17:04.503Z,13.10
2023-04-14T11:19:32.732Z,13.20
2023-04-14T11:21:59.523Z,13.30
2023-04-14T11:24:26.676Z,13.30
2023-04-14T11:26:54.776Z,13.30
2023-04-14T11:29:22.639Z,13.20
2023-04-14T11:32:04.022Z,13.20
2023-04-14T11:34:31.219Z,13.50
2023-04-14T11:36:57.984Z,13.50
2023-04-14T11:39:25.526Z,13.30
2023-04-14T11:41:52.207Z,13.40
2023-04-14T11:44:19.929Z,13.60
2023-04-14T11:46:46.990Z,13.70
2023-04-14T11:49:13.588Z,13.50
2023-04-14T11:51:40.306Z,13.50
2023-04-14T11:54:07.044Z,13.40
2023-04-14T11:56:33.836Z,13.20
2023-04-14T11:59:06.838Z,13.20
2023-04-14T12:01:33.637Z,13.00
2023-04-14T12:04:00.398Z,13.10
2023-04-14T12:06:27.817Z,13.30
2023-04-14T12:08:56.894Z,13.40
2023-04-14T12:11:24.038Z,13.60
2023-04-14T12:13:52.641Z,13.50
2023-04-14T12:16:19.702Z,13.30
2023-04-14T12:18:46.701Z,13.10
2023-04-14T12:21:21.727Z,13.30
2023-04-14T12:23:49.038Z,13.50
2023-04-14T12:26:16.510Z,13.60
2023-04-14T12:28:43.310Z,13.60
2023-04-14T12:31:10.832Z,13.50
2023-04-14T12:33:38.007Z,13.30
2023-04-14T12:36:06.976Z,13.20
2023-04-14T12:38:34.520Z,13.00
2023-04-14T12:41:01.688Z,13.10
2023-04-14T12:43:33.714Z,13.20
2023-04-14T12:46:03.528Z,13.40
2023-04-14T12:48:44.956Z,13.50
2023-04-14T12:51:16.719Z,13.50
2023-04-14T12:53:44.911Z,13.50
2023-04-14T12:56:27.383Z,13.60
2023-04-14T12:58:55.222Z,13.70
2023-04-14T13:01:23.623Z,13.90
2023-04-14T13:03:52.924Z,14.00
2023-04-14T13:06:22.939Z,14.20
2023-04-14T13:08:51.207Z,14.20
2023-04-14T13:11:19.547Z,14.00
2023-04-14T13:13:46.515Z,13.80
2023-04-14T13:16:16.750Z,13.60
2023-04-14T13:18:45.849Z,13.40
2023-04-14T13:21:12.666Z,13.30
2023-04-14T13:23:39.982Z,13.30
2023-04-14T13:26:06.701Z,13.40
2023-04-14T13:28:33.342Z,13.30
2023-04-14T13:31:00.958Z,13.30
2023-04-14T13:33:27.729Z,13.40
2023-04-14T13:35:55.687Z,13.40
2023-04-14T13:38:22.712Z,13.40
2023-04-14T13:40:49.457Z,13.60
2023-04-14T13:43:18.144Z,13.80
2023-04-14T13:45:45.187Z,13.60
2023-04-14T13:48:12.052Z,13.60
2023-04-14T13:50:38.778Z,13.70
2023-04-14T13:53:05.641Z,11.60
2023-04-14T13:55:32.504Z,13.80
2023-04-14T13:57:59.142Z,14.10
2023-04-14T14:00:26.286Z,14.20
2023-04-14T14:02:53.082Z,14.30
2023-04-14T14:05:19.895Z,14.30
2023-04-14T14:07:46.672Z,14.00
2023-04-14T14:10:13.324Z,14.10
2023-04-14T14:12:39.950Z,14.20
2023-04-14T14:15:07.185Z,14.10
2023-04-14T14:17:33.847Z,14.30
2023-04-14T14:20:00.457Z,14.60
2023-04-14T14:22:27.125Z,14.90
2023-04-14T14:25:03.726Z,15.00
2023-04-14T14:27:37.940Z,15.10
2023-04-14T14:30:04.901Z,15.30
2023-04-14T14:32:32.869Z,15.30
2023-04-14T14:34:59.514Z,15.40
2023-04-14T14:37:26.441Z,15.20
2023-04-14T14:39:53.089Z,15.10
2023-04-14T14:42:19.742Z,15.00
2023-04-14T14:44:46.320Z,14.80
2023-04-14T14:47:12.972Z,14.60
2023-04-14T14:49:48.916Z,14.50
2023-04-14T14:52:23.702Z,14.50
2023-04-14T14:54:50.314Z,14.50
2023-04-14T14:57:19.501Z,14.50
2023-04-14T14:59:46.609Z,14.60
2023-04-14T15:02:13.395Z,14.90
2023-04-14T15:04:40.365Z,15.40
2023-04-14T15:07:07.617Z,15.60
2023-04-14T15:09:34.276Z,15.20
2023-04-14T15:12:01.004Z,15.00
2023-04-14T15:14:27.715Z,14.80
2023-04-14T15:16:54.330Z,14.70
2023-04-14T15:19:21.075Z,14.60
2023-04-14T15:21:47.756Z,14.70
2023-04-14T15:24:14.422Z,14.90
2023-04-14T15:26:41.129Z,14.70
2023-04-14T15:29:07.759Z,14.60
2023-04-14T15:31:34.471Z,14.50
2023-04-14T15:34:04.423Z,14.50
2023-04-14T15:36:31.743Z,14.30
2023-04-14T15:38:58.543Z,14.10
2023-04-14T15:41:25.777Z,13.70
2023-04-14T15:43:52.470Z,13.60
2023-04-14T15:46:19.181Z,13.50
2023-04-14T15:48:46.085Z,13.50
2023-04-14T15:51:12.752Z,13.60
2023-04-14T15:53:39.397Z,13.60
2023-04-14T15:56:06.215Z,13.60
2023-04-14T15:58:32.845Z,13.70
2023-04-14T16:00:59.562Z,13.90
2023-04-14T16:03:26.499Z,14.10
2023-04-14T16:06:01.605Z,14.00
2023-04-14T16:08:28.882Z,13.90
2023-04-14T16:10:55.527Z,13.90
2023-04-14T16:13:22.186Z,13.90
2023-04-14T16:15:48.787Z,13.60
2023-04-14T16:18:15.534Z,13.40
2023-04-14T16:20:42.232Z,13.30
2023-04-14T16:23:08.858Z,13.10
2023-04-14T16:25:35.733Z,13.10
2023-04-14T16:28:02.360Z,13.10
2023-04-14T16:30:28.958Z,13.00
2023-04-14T16:32:55.613Z,13.00
2023-04-14T16:35:22.263Z,13.00
2023-04-14T16:37:48.864Z,13.00
2023-04-14T16:40:15.715Z,13.00
2023-04-14T16:42:42.347Z,13.00
2023-04-14T16:45:09.338Z,13.10
2023-04-14T16:47:36.138Z,13.10
2023-04-14T16:50:02.845Z,13.10
2023-04-14T16:52:30.509Z,13.10
2023-04-14T16:54:57.621Z,13.00
2023-04-14T16:57:25.556Z,13.20
2023-04-14T16:59:52.222Z,13.20
2023-04-14T17:02:19.068Z,14.90
2023-04-14T17:04:46.015Z,13.00
2023-04-14T17:07:12.892Z,13.00
2023-04-14T17:09:39.637Z,13.30
2023-04-14T17:12:07.009Z,13.70
2023-04-14T17:14:34.115Z,13.30
2023-04-14T17:17:01.855Z,13.00
2023-04-14T17:19:28.525Z,12.70
2023-04-14T17:21:55.096Z,12.50
2023-04-14T17:24:23.083Z,12.40
2023-04-14T17:26:50.244Z,12.20
2023-04-14T17:29:16.980Z,12.10
2023-04-14T17:31:44.579Z,12.00
2023-04-14T17:34:11.993Z,12.00
2023-04-14T17:36:39.381Z,12.10
2023-04-14T17:39:08.138Z,12.00
2023-04-14T17:41:35.031Z,11.90
2023-04-14T17:44:01.926Z,12.00
2023-04-14T17:46:34.703Z,12.00
2023-04-14T17:49:01.890Z,12.10
2023-04-14T17:51:30.270Z,11.90
2023-04-14T17:53:57.971Z,11.80
2023-04-14T17:56:25.386Z,11.70
2023-04-14T17:58:52.160Z,11.60
2023-04-14T18:01:19.350Z,11.60
2023-04-14T18:03:46.130Z,11.60
2023-04-14T18:06:12.772Z,11.50
2023-04-14T18:08:39.618Z,11.50
2023-04-14T18:11:06.594Z,11.50
2023-04-14T18:13:33.517Z,11.30
2023-04-14T18:16:00.633Z,11.20
2023-04-14T18:18:27.527Z,11.30
2023-04-14T18:20:54.200Z,11.20
2023-04-14T18:23:20.877Z,11.30
2023-04-14T18:28:16.985Z,11.40
2023-04-14T18:30:43.608Z,11.40
2023-04-14T18:33:10.251Z,11.30
2023-04-14T18:35:36.870Z,10.60
2023-04-14T18:38:03.907Z,11.20
2023-04-14T18:40:30.558Z,11.30
2023-04-14T18:42:57.543Z,11.20
2023-04-14T18:45:24.221Z,11.20
2023-04-14T18:47:51.159Z,11.20
2023-04-14T18:50:18.431Z,11.20
2023-04-14T18:52:45.372Z,11.20
2023-04-14T18:55:12.015Z,11.20
2023-04-14T18:57:39.049Z,11.10
2023-04-14T19:00:06.357Z,11.10
2023-04-14T19:02:34.455Z,11.00
2023-04-14T19:05:02.322Z,11.00
2023-04-14T19:07:29.160Z,11.10
2023-04-14T19:09:55.802Z,11.10
2023-04-14T19:12:28.396Z,11.10
2023-04-14T19:14:55.873Z,11.20
2023-04-14T19:17:22.623Z,11.20
2023-04-14T19:19:50.192Z,11.20
2023-04-14T19:22:16.835Z,11.10
2023-04-14T19:24:43.410Z,11.10
2023-04-14T19:27:10.323Z,11.10
2023-04-14T19:29:36.980Z,11.10
2023-04-14T19:32:04.924Z,11.10
2023-04-14T19:34:31.992Z,11.00
2023-04-14T19:36:58.700Z,11.10
2023-04-14T19:39:25.644Z,11.00
2023-04-14T19:41:52.799Z,11.00
2023-04-14T19:44:19.411Z,12.40
2023-04-14T19:46:46.504Z,10.80
2023-04-14T19:49:14.174Z,10.80
2023-04-14T19:51:40.826Z,10.80
2023-04-14T19:54:07.671Z,10.70
2023-04-14T19:56:34.894Z,10.60
2023-04-14T19:59:02.050Z,10.60
2023-04-14T20:01:28.914Z,10.50
2023-04-14T20:04:08.596Z,10.40
2023-04-14T20:06:39.353Z,10.50
2023-04-14T20:09:06.462Z,10.50
2023-04-14T20:11:33.093Z,10.50
2023-04-14T20:13:59.750Z,10.40
2023-04-14T20:16:26.657Z,10.40
2023-04-14T20:18:53.315Z,10.40
2023-04-14T20:21:19.978Z,10.40
2023-04-14T20:23:47.165Z,10.40
2023-04-14T20:26:15.265Z,10.50
2023-04-14T20:28:42.774Z,10.50
2023-04-14T20:31:09.799Z,10.60
2023-04-14T20:33:36.889Z,10.60
2023-04-14T20:36:03.810Z,10.60
2023-04-14T20:38:30.466Z,10.50
2023-04-14T20:40:57.434Z,10.60
2023-04-14T20:43:25.119Z,11.50
2023-04-14T20:45:53.012Z,9.90
2023-04-14T20:48:20.513Z,11.60
2023-04-14T20:50:49.622Z,11.60
2023-04-14T20:53:16.989Z,11.50
2023-04-14T20:55:43.676Z,11.50
2023-04-14T20:58:10.735Z,11.60
2023-04-14T21:00:37.329Z,11.60
2023-04-14T21:03:04.413Z,11.40
2023-04-14T21:05:31.190Z,11.50
2023-04-14T21:07:57.976Z,11.70
2023-04-14T21:10:24.776Z,11.60
2023-04-14T21:15:28.319Z,11.60
2023-04-14T21:15:52.236Z,11.40
2023-04-14T21:18:22.951Z,11.30
2023-04-14T21:20:49.535Z,11.00
2023-04-14T21:23:16.708Z,11.00
2023-04-14T21:25:43.385Z,10.70
2023-04-14T21:28:10.424Z,10.70
2023-04-14T21:30:37.657Z,10.60
2023-04-14T21:33:07.422Z,10.70
2023-04-14T21:35:35.228Z,10.70
2023-04-14T21:38:02.622Z,10.70
2023-04-14T21:40:29.581Z,10.70
2023-04-14T21:42:56.728Z,10.70
2023-04-14T21:45:23.549Z,10.60
2023-04-14T21:47:50.350Z,10.60
2023-04-14T21:50:17.295Z,10.60
2023-04-14T21:52:43.949Z,10.50
2023-04-14T21:55:10.628Z,10.60
2023-04-14T21:57:48.600Z,10.60
2023-04-14T22:00:17.604Z,10.50
2023-04-14T22:02:45.346Z,10.50
2023-04-14T22:05:12.830Z,10.50
2023-04-14T22:07:39.864Z,10.40
2023-04-14T22:10:07.075Z,10.30
2023-04-14T22:12:35.875Z,10.30
2023-04-14T22:15:04.349Z,10.30
2023-04-14T22:17:31.299Z,10.30
2023-04-14T22:19:59.189Z,10.30
2023-04-14T22:22:25.787Z,10.20
2023-04-14T22:24:54.364Z,10.20
2023-04-14T22:27:21.035Z,10.40
2023-04-14T22:29:47.830Z,10.40
2023-04-14T22:32:15.882Z,10.50
2023-04-14T22:34:42.675Z,10.30
2023-04-14T22:37:09.324Z,10.30
2023-04-14T22:39:36.318Z,10.30
2023-04-14T22:42:03.135Z,10.20
2023-04-14T22:44:29.800Z,10.20
2023-04-14T22:46:56.619Z,10.00
2023-04-14T22:49:23.281Z,10.00
2023-04-14T22:51:49.969Z,9.90
2023-04-14T22:54:16.550Z,10.00
2023-04-14T22:56:43.331Z,10.00
2023-04-14T22:59:10.280Z,10.00
2023-04-14T23:01:37.407Z,10.00
2023-04-14T23:04:04.185Z,9.90
2023-04-14T23:06:30.955Z,10.00
2023-04-14T23:08:57.592Z,10.10
2023-04-14T23:11:24.222Z,9.90
2023-04-14T23:13:51.353Z,9.80
2023-04-14T23:16:20.113Z,9.80
2023-04-14T23:18:51.994Z,9.70
2023-04-14T23:21:24.757Z,9.70
2023-04-14T23:23:52.400Z,9.80
2023-04-14T23:26:20.289Z,9.80
2023-04-14T23:28:47.240Z,9.80
2023-04-14T23:31:14.294Z,9.80
2023-04-14T23:33:41.216Z,9.70
2023-04-14T23:36:08.197Z,9.80
2023-04-14T23:38:35.082Z,11.60
2023-04-14T23:41:02.078Z,9.90
2023-04-14T23:43:29.083Z,10.00
2023-04-14T23:45:56.063Z,10.00
2023-04-14T23:48:22.809Z,10.00
2023-04-14T23:51:00.641Z,8.20
2023-04-14T23:53:36.163Z,9.90
2023-04-14T23:56:04.180Z,9.80
2023-04-14T23:58:31.586Z,9.80
